createdAt,value
2022-08-21T00:02:34.427Z,9.68
2022-08-21T00:07:36.302Z,10.15
2022-08-21T00:12:38.549Z,12.13
2022-08-21T00:17:40.659Z,16.90
2022-08-21T00:22:43.138Z,10.70
2022-08-21T00:27:45.452Z,10.45
2022-08-21T00:32:47.473Z,10.95
2022-08-21T00:37:50.172Z,10.07
2022-08-21T00:42:53.790Z,10.93
2022-08-21T00:47:56.114Z,11.77
2022-08-21T00:52:58.426Z,11.00
2022-08-21T00:58:02.589Z,11.88
2022-08-21T01:03:09.046Z,13.48
2022-08-21T01:08:12.286Z,10.75
2022-08-21T01:13:17.401Z,9.85
2022-08-21T01:18:20.633Z,10.95
2022-08-21T01:23:22.402Z,12.52
2022-08-21T01:28:24.980Z,11.65
2022-08-21T01:33:26.763Z,9.80
2022-08-21T01:38:28.614Z,10.52
2022-08-21T01:43:39.379Z,9.55
2022-08-21T01:48:42.490Z,8.23
2022-08-21T01:53:44.762Z,9.52
2022-08-21T01:58:48.385Z,10.07
2022-08-21T02:03:50.196Z,9.85
2022-08-21T02:08:52.738Z,11.75
2022-08-21T02:13:54.539Z,9.30
2022-08-21T02:18:56.371Z,9.88
2022-08-21T02:23:58.406Z,10.77
2022-08-21T02:29:00.669Z,11.18
2022-08-21T02:34:02.527Z,10.30
2022-08-21T02:39:04.413Z,9.85
2022-08-21T02:44:06.240Z,10.40
2022-08-21T02:49:08.015Z,7.93
2022-08-21T02:54:09.800Z,12.35
2022-08-21T02:59:11.581Z,7.78
2022-08-21T03:04:13.361Z,10.48
2022-08-21T03:09:15.247Z,8.70
2022-08-21T03:14:17.011Z,7.32
2022-08-21T03:19:18.762Z,9.02
2022-08-21T03:24:21.250Z,11.13
2022-08-21T03:29:24.737Z,6.47
2022-08-21T03:34:26.551Z,9.25
2022-08-21T03:39:28.307Z,8.32
2022-08-21T03:44:30.916Z,7.07
2022-08-21T03:49:32.898Z,7.68
2022-08-21T03:54:34.703Z,7.32
2022-08-21T03:59:38.165Z,8.65
2022-08-21T04:04:39.996Z,8.55
2022-08-21T04:09:41.785Z,11.85
2022-08-21T04:14:43.547Z,7.32
2022-08-21T04:19:49.367Z,12.63
2022-08-21T04:24:55.245Z,7.72
2022-08-21T04:29:57.024Z,7.10
2022-08-21T04:35:04.899Z,8.25
2022-08-21T04:40:08.573Z,8.00
2022-08-21T04:45:10.388Z,8.32
2022-08-21T04:50:12.153Z,8.75
2022-08-21T04:55:28.963Z,6.93
2022-08-21T05:00:30.883Z,7.20
2022-08-21T05:05:33.232Z,7.63
2022-08-21T05:10:35.181Z,8.23
2022-08-21T05:15:38.363Z,8.82
2022-08-21T05:20:40.198Z,10.77
2022-08-21T05:25:42.378Z,9.70
2022-08-21T05:30:44.828Z,10.18
2022-08-21T05:35:46.689Z,9.50
2022-08-21T05:40:48.582Z,8.88
2022-08-21T05:45:50.443Z,6.30
2022-08-21T05:50:53.511Z,8.38
2022-08-21T05:55:55.326Z,9.85
2022-08-21T06:00:58.840Z,8.23
2022-08-21T06:06:01.137Z,7.00
2022-08-21T06:11:04.229Z,6.70
2022-08-21T06:16:10.265Z,8.55
2022-08-21T06:21:14.329Z,8.32
2022-08-21T06:26:16.294Z,8.88
2022-08-21T06:31:24.418Z,5.75
2022-08-21T06:36:26.315Z,8.05
2022-08-21T06:41:28.421Z,9.77
2022-08-21T06:46:31.553Z,6.80
2022-08-21T06:51:33.322Z,9.63
2022-08-21T06:56:36.255Z,6.82
2022-08-21T07:01:38.079Z,7.00
2022-08-21T07:06:39.890Z,5.93
2022-08-21T07:11:47.623Z,9.23
2022-08-21T07:16:50.367Z,6.90
2022-08-21T07:21:54.123Z,5.95
2022-08-21T07:26:56.065Z,9.57
2022-08-21T07:31:57.907Z,6.40
2022-08-21T07:36:59.691Z,7.15
2022-08-21T07:42:08.687Z,7.63
2022-08-21T07:47:10.621Z,6.10
2022-08-21T07:52:12.409Z,7.53
2022-08-21T07:57:14.264Z,5.65
2022-08-21T08:02:28.088Z,7.18
2022-08-21T08:12:31.801Z,5.85
2022-08-21T08:17:33.691Z,8.07
2022-08-21T08:22:38.354Z,5.60
2022-08-21T08:27:40.538Z,5.10
2022-08-21T08:32:42.682Z,5.70
2022-08-21T08:37:49.048Z,6.45
2022-08-21T08:42:54.351Z,8.80
2022-08-21T08:48:06.834Z,6.28
2022-08-21T08:53:34.097Z,7.82
2022-08-21T08:58:40.365Z,7.50
2022-08-21T09:03:42.434Z,6.30
2022-08-21T09:08:50.521Z,6.65
2022-08-21T09:14:17.869Z,8.90
2022-08-21T09:19:33.402Z,6.22
2022-08-21T09:24:56.207Z,5.47
2022-08-21T09:29:59.564Z,5.47
2022-08-21T09:35:23.107Z,8.05
2022-08-21T09:40:33.783Z,5.32
2022-08-21T09:45:36.304Z,7.13
2022-08-21T09:50:38.119Z,5.93
2022-08-21T09:56:11.595Z,5.55
2022-08-21T10:01:17.918Z,4.95
2022-08-21T10:06:27.570Z,4.95
2022-08-21T10:11:30.464Z,6.25
2022-08-21T10:16:54.553Z,6.65
2022-08-21T10:22:30.931Z,5.65
2022-08-21T10:27:45.179Z,5.85
2022-08-21T10:33:02.927Z,4.97
2022-08-21T10:38:52.618Z,5.93
2022-08-21T10:44:16.076Z,5.05
2022-08-21T10:49:37.272Z,6.97
2022-08-21T10:54:52.787Z,4.20
2022-08-21T11:00:04.514Z,5.20
2022-08-21T11:05:11.681Z,5.72
2022-08-21T11:10:25.623Z,7.15
2022-08-21T11:15:36.074Z,5.75
2022-08-21T11:20:49.086Z,5.50
2022-08-21T11:25:58.892Z,6.30
2022-08-21T11:31:34.893Z,5.63
2022-08-21T11:36:47.720Z,5.85
2022-08-21T11:42:06.929Z,3.45
2022-08-21T11:47:18.837Z,4.07
2022-08-21T11:52:36.801Z,4.43
2022-08-21T11:58:00.530Z,5.03
2022-08-21T12:03:36.555Z,2.80
2022-08-21T12:08:44.578Z,4.40
2022-08-21T12:14:04.632Z,4.20
2022-08-21T12:19:17.702Z,5.65
2022-08-21T12:24:45.720Z,2.97
2022-08-21T12:29:51.971Z,2.53
2022-08-21T12:35:07.115Z,2.65
2022-08-21T12:40:30.880Z,4.38
2022-08-21T12:45:38.368Z,3.42
2022-08-21T12:50:50.483Z,3.83
2022-08-21T12:55:52.599Z,4.03
2022-08-21T13:01:19.411Z,3.85
2022-08-21T13:06:23.233Z,3.20
2022-08-21T13:11:33.750Z,3.22
2022-08-21T13:16:36.276Z,2.70
2022-08-21T13:21:43.818Z,5.07
2022-08-21T13:26:46.313Z,4.28
2022-08-21T13:31:53.907Z,3.38
2022-08-21T13:36:59.312Z,4.22
2022-08-21T13:42:03.235Z,3.72
2022-08-21T13:47:10.075Z,4.75
2022-08-21T13:52:30.020Z,4.53
2022-08-21T13:57:34.354Z,4.43
2022-08-21T14:02:41.737Z,5.63
2022-08-21T14:07:45.139Z,4.80
2022-08-21T14:12:57.722Z,7.30
2022-08-21T14:18:20.609Z,3.85
2022-08-21T14:23:26.906Z,6.38
2022-08-21T14:28:39.662Z,4.55
2022-08-21T14:33:42.981Z,4.78
2022-08-21T14:38:44.765Z,7.25
2022-08-21T14:43:47.698Z,4.65
2022-08-21T14:49:01.756Z,5.10
2022-08-21T14:54:03.577Z,4.97
2022-08-21T14:59:09.900Z,5.82
2022-08-21T15:04:12.014Z,6.22
2022-08-21T15:09:13.797Z,7.07
2022-08-21T15:14:21.540Z,6.57
2022-08-21T15:19:23.722Z,8.30
2022-08-21T15:24:26.205Z,6.35
2022-08-21T15:29:33.530Z,6.47
2022-08-21T15:34:35.557Z,6.68
2022-08-21T15:39:38.968Z,7.82
2022-08-21T15:44:43.606Z,8.25
2022-08-21T15:49:46.349Z,6.57
2022-08-21T15:54:48.747Z,6.75
2022-08-21T15:59:53.914Z,6.30
2022-08-21T16:04:56.948Z,5.88
2022-08-21T16:09:58.793Z,6.10
2022-08-21T16:15:02.222Z,7.53
2022-08-21T16:20:08.814Z,6.50
2022-08-21T16:25:10.635Z,6.50
2022-08-21T16:30:13.217Z,6.22
2022-08-21T16:35:17.359Z,7.90
2022-08-21T16:40:19.374Z,5.47
2022-08-21T16:45:21.909Z,7.65
2022-08-21T16:50:25.366Z,5.72
2022-08-21T16:55:27.150Z,5.68
2022-08-21T17:00:28.929Z,5.22
2022-08-21T17:05:30.738Z,7.53
2022-08-21T17:10:32.999Z,6.15
2022-08-21T17:15:37.139Z,7.43
2022-08-21T17:20:38.993Z,5.97
2022-08-21T17:25:43.954Z,7.00
2022-08-21T17:30:46.212Z,5.20
2022-08-21T17:35:48.659Z,6.70
2022-08-21T17:40:50.719Z,5.03
2022-08-21T17:45:53.460Z,5.20
2022-08-21T17:50:55.288Z,7.63
2022-08-21T17:55:57.594Z,5.78
2022-08-21T18:01:03.763Z,7.53
2022-08-21T18:06:06.762Z,8.50
2022-08-21T18:11:10.430Z,7.15
2022-08-21T18:16:21.013Z,16.30
2022-08-21T18:21:23.596Z,8.07
2022-08-21T18:26:34.963Z,7.15
2022-08-21T18:31:39.034Z,6.85
2022-08-21T18:36:40.838Z,17.52
2022-08-21T18:41:44.638Z,8.35
2022-08-21T18:46:54.250Z,9.15
2022-08-21T18:51:56.613Z,9.35
2022-08-21T18:56:59.308Z,11.63
2022-08-21T19:02:01.228Z,11.10
2022-08-21T19:07:04.271Z,11.55
2022-08-21T19:12:07.371Z,10.10
2022-08-21T19:17:13.414Z,13.23
2022-08-21T19:22:15.188Z,11.68
2022-08-21T19:27:19.330Z,9.20
2022-08-21T19:32:21.272Z,8.95
2022-08-21T19:37:23.450Z,9.02
2022-08-21T19:42:30.896Z,9.50
2022-08-21T19:47:33.744Z,9.35
2022-08-21T19:52:35.833Z,10.57
2022-08-21T19:57:39.215Z,10.88
2022-08-21T20:02:48.035Z,10.95
2022-08-21T20:07:50.145Z,8.52
2022-08-21T20:12:53.590Z,8.75
2022-08-21T20:17:55.379Z,9.27
2022-08-21T20:22:57.627Z,9.35
2022-08-21T20:28:01.318Z,8.35
2022-08-21T20:33:03.576Z,7.55
2022-08-21T20:38:05.552Z,8.18
2022-08-21T20:43:08.372Z,8.15
2022-08-21T20:48:48.913Z,8.25
2022-08-21T20:54:04.928Z,6.40
2022-08-21T20:59:10.594Z,6.95
2022-08-21T21:04:26.617Z,5.97
2022-08-21T21:09:41.292Z,6.20
2022-08-21T21:14:48.621Z,6.70
2022-08-21T21:19:58.920Z,6.82
2022-08-21T21:25:42.107Z,7.85
2022-08-21T21:30:47.160Z,7.43
2022-08-21T21:36:24.168Z,6.40
2022-08-21T21:41:36.764Z,8.65
2022-08-21T21:46:48.906Z,7.55
2022-08-21T21:52:12.168Z,11.10
2022-08-21T21:57:52.697Z,7.32
2022-08-21T22:03:22.526Z,7.07
2022-08-21T22:08:33.481Z,7.10
2022-08-21T22:14:22.749Z,6.93
2022-08-21T22:19:29.358Z,7.43
2022-08-21T22:24:37.700Z,6.15
2022-08-21T22:29:55.424Z,10.40
2022-08-21T22:35:23.759Z,8.43
2022-08-21T22:40:32.467Z,6.43
2022-08-21T22:45:58.713Z,8.70
2022-08-21T22:51:05.926Z,7.63
2022-08-21T22:56:08.834Z,5.90
2022-08-21T23:01:22.916Z,6.68
2022-08-21T23:06:39.959Z,8.73
2022-08-21T23:11:44.837Z,7.13
2022-08-21T23:17:05.144Z,7.93
2022-08-21T23:27:56.430Z,5.78
2022-08-21T23:33:36.044Z,6.28
2022-08-21T23:38:51.427Z,5.78
2022-08-21T23:44:10.682Z,5.75
2022-08-21T23:49:26.742Z,5.35
2022-08-21T23:54:40.663Z,3.95
